Time;durP1;ratioP1;P1;durP2;ratioP2;P2;SDS_P1;SDS_P2;PMS_P1;PMS_P2;Temp;Humidity;BMP_temperature;BMP_pressure;BME280_temperature;BME280_humidity;BME280_pressure;Samples;Min_cycle;Max_cycle;Signal;HPM_P1;HPM_P2
2023/09/02 00:00:08;;;;;;;3.40;2.40;;;;;;;16.15;86.67;96823.02;108615;1273;25117;-83
2023/09/02 00:03:02;;;;;;;3.80;2.60;;;;;;;16.12;87.21;96825.21;108662;1273;22530;-83
2023/09/02 00:05:33;;;;;;;3.90;2.90;;;;;;;16.14;87.44;96825.56;108706;1266;22517;-83
2023/09/02 00:08:05;;;;;;;3.90;3.10;;;;;;;16.14;87.71;96825.02;108660;1266;22522;-82
2023/09/02 00:10:36;;;;;;;4.70;3.20;;;;;;;16.12;87.90;96822.60;108647;1265;27112;-83
2023/09/02 00:13:07;;;;;;;3.40;3.10;;;;;;;16.10;88.41;96828.27;108674;1270;22521;-83
2023/09/02 00:15:38;;;;;;;3.60;3.00;;;;;;;16.11;88.98;96836.01;108704;1273;24325;-82
2023/09/02 00:18:09;;;;;;;4.50;3.10;;;;;;;16.14;89.44;96845.73;108604;1270;22514;-83
2023/09/02 00:20:57;;;;;;;3.50;3.10;;;;;;;16.18;89.84;96864.16;108475;1271;22511;-82
2023/09/02 00:24:06;;;;;;;4.50;2.90;;;;;;;16.19;90.17;96869.43;108851;1266;22515;-82
2023/09/02 00:26:37;;;;;;;3.50;3.20;;;;;;;16.22;90.49;96876.31;108813;1271;24380;-82
2023/09/02 00:29:08;;;;;;;6.30;3.50;;;;;;;16.23;90.80;96874.40;108835;1272;22532;-82
2023/09/02 00:31:39;;;;;;;5.10;3.30;;;;;;;16.22;90.91;96876.41;108775;1271;26106;-82
2023/09/02 00:34:12;;;;;;;5.40;3.30;;;;;;;16.16;91.09;96876.86;108781;1271;22507;-82
2023/09/02 00:36:43;;;;;;;4.70;3.60;;;;;;;16.12;91.38;96870.67;108850;1271;26169;-82
2023/09/02 00:39:16;;;;;;;4.40;3.80;;;;;;;16.11;91.70;96866.67;108789;1271;22691;-82
2023/09/02 00:41:53;;;;;;;4.80;3.50;;;;;;;16.13;91.88;96871.45;108815;1266;22667;-82
2023/09/02 00:44:27;;;;;;;9.40;3.60;;;;;;;16.16;92.01;96876.77;108809;1271;22511;-82
2023/09/02 00:47:00;;;;;;;5.30;4.00;;;;;;;16.15;91.98;96880.54;108844;1271;24216;-82
2023/09/02 00:49:32;;;;;;;3.80;3.20;;;;;;;16.16;92.17;96875.38;108794;1271;24208;-82
2023/09/02 00:52:03;;;;;;;5.20;3.80;;;;;;;16.17;92.39;96879.73;108722;1272;22518;-82
2023/09/02 00:54:35;;;;;;;3.30;3.00;;;;;;;16.19;92.42;96878.15;108676;1269;22514;-82
2023/09/02 00:57:08;;;;;;;3.80;3.50;;;;;;;16.20;92.79;96870.11;108677;1273;22508;-82
2023/09/02 00:59:39;;;;;;;6.20;3.30;;;;;;;16.19;93.05;96863.05;108730;1272;22593;-81
2023/09/02 01:02:11;;;;;;;6.30;3.90;;;;;;;16.19;93.06;96865.47;108822;1266;25230;-82
2023/09/02 01:04:42;;;;;;;8.70;3.90;;;;;;;16.19;93.13;96866.92;108792;1266;25236;-82
2023/09/02 01:07:13;;;;;;;6.20;3.80;;;;;;;16.20;93.35;96869.57;108749;1271;25399;-82
2023/09/02 01:09:47;;;;;;;4.20;3.40;;;;;;;16.20;93.48;96882.20;108802;1271;24612;-81
2023/09/02 01:12:23;;;;;;;4.90;3.70;;;;;;;16.18;93.52;96881.13;108791;1271;22519;-82
2023/09/02 01:15:02;;;;;;;6.10;4.10;;;;;;;16.13;93.67;96873.17;108833;1271;23266;-82
2023/09/02 01:17:33;;;;;;;5.20;3.70;;;;;;;16.11;93.87;96866.11;108785;1272;22514;-82
2023/09/02 01:20:08;;;;;;;5.70;3.70;;;;;;;16.10;94.07;96877.25;108785;1271;26006;-82
2023/09/02 01:23:09;;;;;;;6.00;3.50;;;;;;;16.10;94.12;96876.09;108772;1272;22511;-81
2023/09/02 01:26:10;;;;;;;4.90;3.60;;;;;;;16.06;94.18;96867.25;108813;1271;23534;-82
2023/09/02 01:28:49;;;;;;;5.80;3.80;;;;;;;15.99;94.59;96866.87;108795;1271;25230;-82
2023/09/02 01:31:22;;;;;;;5.70;3.70;;;;;;;15.97;94.67;96867.05;108788;1266;24269;-81
2023/09/02 01:33:54;;;;;;;6.50;3.60;;;;;;;15.96;94.85;96865.85;108847;1264;22521;-81
2023/09/02 01:36:28;;;;;;;5.00;4.20;;;;;;;15.95;94.88;96862.29;108827;1271;22539;-82
2023/09/02 01:39:00;;;;;;;4.40;3.70;;;;;;;15.95;95.09;96862.77;108797;1272;26177;-82
2023/09/02 01:41:32;;;;;;;4.90;3.50;;;;;;;15.93;95.18;96865.97;108741;1271;22517;-82
2023/09/02 01:44:05;;;;;;;4.70;3.80;;;;;;;15.88;95.38;96847.48;108738;1271;25491;-82
2023/09/02 01:46:37;;;;;;;3.90;3.30;;;;;;;15.87;95.58;96846.06;108829;1271;22538;-82
2023/09/02 01:49:09;;;;;;;6.20;4.10;;;;;;;15.87;95.81;96841.44;108776;1271;22595;-82
2023/09/02 01:51:41;;;;;;;6.00;4.10;;;;;;;15.87;95.90;96841.66;108747;1263;22585;-82
2023/09/02 01:54:12;;;;;;;5.10;3.80;;;;;;;15.87;96.10;96856.16;108787;1266;22511;-82
2023/09/02 01:56:44;;;;;;;3.40;3.00;;;;;;;15.79;96.31;96849.95;108732;1271;22521;-82
2023/09/02 01:59:15;;;;;;;5.00;3.60;;;;;;;15.71;96.96;96843.61;108724;1269;22507;-82
2023/09/02 02:01:49;;;;;;;3.40;3.10;;;;;;;15.66;97.64;96847.77;108785;1265;24244;-82
2023/09/02 02:04:28;;;;;;;5.10;3.60;;;;;;;15.62;97.91;96851.98;108784;1253;24423;-82
2023/09/02 02:07:05;;;;;;;4.20;3.30;;;;;;;15.57;98.09;96849.12;108775;1271;22557;-82
2023/09/02 02:09:41;;;;;;;4.80;3.30;;;;;;;15.55;98.29;96852.97;108833;1266;22524;-81
2023/09/02 02:12:14;;;;;;;4.00;3.40;;;;;;;15.56;98.50;96856.54;108824;1267;24218;-82
2023/09/02 02:14:49;;;;;;;3.40;3.10;;;;;;;15.56;98.68;96854.86;108846;1271;22557;-82
2023/09/02 02:17:20;;;;;;;4.50;3.80;;;;;;;15.55;98.98;96855.91;108829;1271;22530;-82
2023/09/02 02:19:51;;;;;;;4.40;3.60;;;;;;;15.54;99.06;96856.59;108745;1271;25277;-82
2023/09/02 02:22:25;;;;;;;4.10;3.50;;;;;;;15.50;99.44;96855.61;108797;1266;22519;-82
2023/09/02 02:24:56;;;;;;;4.90;3.50;;;;;;;15.46;99.72;96850.16;108813;1265;22624;-82
2023/09/02 02:27:27;;;;;;;4.10;3.40;;;;;;;15.46;99.85;96850.92;108795;1271;22628;-82
2023/09/02 02:29:58;;;;;;;4.20;3.50;;;;;;;15.51;99.96;96846.14;108784;1271;22659;-82
2023/09/02 02:32:29;;;;;;;5.90;4.20;;;;;;;15.56;99.94;96844.02;108783;1271;22593;-82
2023/09/02 02:35:01;;;;;;;4.70;3.70;;;;;;;15.60;99.97;96843.34;108775;1267;24342;-82
2023/09/02 02:37:32;;;;;;;4.90;3.60;;;;;;;15.64;99.99;96842.33;108809;1271;24206;-82
2023/09/02 02:40:05;;;;;;;4.10;3.60;;;;;;;15.67;99.98;96841.11;108786;1271;22901;-82
2023/09/02 02:42:36;;;;;;;4.80;3.50;;;;;;;15.68;99.95;96843.16;108743;1271;22566;-82
2023/09/02 02:45:09;;;;;;;4.70;3.90;;;;;;;15.68;99.95;96838.42;108818;1271;22521;-82
2023/09/02 02:47:40;;;;;;;4.10;3.70;;;;;;;15.66;99.97;96839.53;108830;1271;22980;-82
2023/09/02 02:50:12;;;;;;;4.30;3.80;;;;;;;15.67;100.00;96832.24;108660;1271;22642;-82
2023/09/02 02:52:43;;;;;;;4.80;3.70;;;;;;;15.69;100.00;96829.45;108772;1272;22577;-82
2023/09/02 02:55:16;;;;;;;4.30;3.90;;;;;;;15.70;100.00;96829.17;108760;1269;22567;-82
2023/09/02 02:57:48;;;;;;;4.00;3.60;;;;;;;15.69;100.00;96829.77;108744;1266;25385;-82
2023/09/02 03:00:22;;;;;;;4.00;3.50;;;;;;;15.70;100.00;96822.07;108761;1267;22522;-82
2023/09/02 03:02:55;;;;;;;5.20;3.50;;;;;;;15.69;100.00;96816.95;108818;1266;22515;-82
2023/09/02 03:05:26;;;;;;;4.60;3.60;;;;;;;15.70;100.00;96813.52;108866;1266;22520;-82
2023/09/02 03:07:59;;;;;;;4.20;3.80;;;;;;;15.70;100.00;96813.08;108743;1272;24219;-82
2023/09/02 03:10:31;;;;;;;3.40;2.90;;;;;;;15.70;100.00;96811.78;108725;1271;22526;-82
2023/09/02 03:13:03;;;;;;;4.90;3.10;;;;;;;15.66;100.00;96805.11;108785;1271;23868;-83
2023/09/02 03:15:35;;;;;;;5.00;3.30;;;;;;;15.63;100.00;96801.29;108773;1271;26776;-82
2023/09/02 03:18:07;;;;;;;4.50;3.00;;;;;;;15.60;100.00;96800.88;108745;1272;24212;-82
2023/09/02 03:20:38;;;;;;;3.90;2.80;;;;;;;15.59;100.00;96799.54;108732;1272;23308;-83
2023/09/02 03:23:09;;;;;;;3.50;3.00;;;;;;;15.59;100.00;96802.59;108750;1272;22560;-83
2023/09/02 03:25:40;;;;;;;3.70;3.30;;;;;;;15.58;100.00;96801.96;108719;1267;23768;-83
2023/09/02 03:28:13;;;;;;;3.20;2.60;;;;;;;15.57;100.00;96802.73;108768;1272;22952;-83
2023/09/02 03:30:49;;;;;;;4.50;3.10;;;;;;;15.55;100.00;96804.39;108736;1271;25481;-82
2023/09/02 03:33:22;;;;;;;4.30;3.30;;;;;;;15.57;100.00;96804.23;108766;1272;22525;-82
2023/09/02 03:35:55;;;;;;;4.80;3.30;;;;;;;15.58;100.00;96803.35;108661;1271;237398;-82
2023/09/02 03:38:32;;;;;;;4.10;3.30;;;;;;;15.57;100.00;96803.09;108862;1272;22554;-83
2023/09/02 03:41:17;;;;;;;4.70;3.50;;;;;;;15.61;100.00;96801.60;108867;1272;22633;-83
2023/09/02 03:43:49;;;;;;;3.90;3.50;;;;;;;15.67;100.00;96805.98;108934;1272;22515;-82
2023/09/02 03:46:25;;;;;;;4.50;3.50;;;;;;;15.70;100.00;96809.96;108962;1271;25328;-82
2023/09/02 03:48:56;;;;;;;3.50;3.10;;;;;;;15.73;100.00;96812.77;108880;1269;25278;-83
2023/09/02 03:51:28;;;;;;;4.30;3.00;;;;;;;15.76;100.00;96812.06;108868;1265;22528;-83
2023/09/02 03:54:01;;;;;;;4.60;3.80;;;;;;;15.78;100.00;96814.11;108920;1266;22571;-83
2023/09/02 03:56:36;;;;;;;5.20;3.60;;;;;;;15.81;100.00;96814.24;108794;1269;22514;-82
2023/09/02 03:59:08;;;;;;;4.00;3.30;;;;;;;15.83;100.00;96807.17;108844;1272;25801;-83
2023/09/02 04:01:42;;;;;;;3.80;3.50;;;;;;;15.84;100.00;96809.27;108888;1272;23094;-83
2023/09/02 04:04:13;;;;;;;3.50;3.20;;;;;;;15.83;100.00;96807.93;108833;1271;22581;-83
2023/09/02 04:06:53;;;;;;;4.40;3.30;;;;;;;15.84;100.00;96804.29;108756;1269;25230;-83
2023/09/02 04:09:24;;;;;;;4.20;3.70;;;;;;;15.84;100.00;96805.41;108813;1272;22534;-83
2023/09/02 04:11:55;;;;;;;3.90;3.50;;;;;;;15.86;100.00;96801.11;108810;1265;25447;-83
2023/09/02 04:14:27;;;;;;;4.30;3.90;;;;;;;15.89;100.00;96805.20;108774;1269;22504;-83
2023/09/02 04:16:59;;;;;;;5.20;3.70;;;;;;;15.91;100.00;96812.45;108805;1263;22538;-82
2023/09/02 04:19:32;;;;;;;5.20;3.70;;;;;;;15.92;100.00;96810.51;108847;1267;24262;-83
2023/09/02 04:22:09;;;;;;;6.90;3.90;;;;;;;15.93;100.00;96812.65;108849;1271;22518;-83
2023/09/02 04:24:42;;;;;;;4.00;3.50;;;;;;;15.95;100.00;96812.60;108803;1271;26579;-83
2023/09/02 04:27:14;;;;;;;4.30;3.50;;;;;;;15.97;100.00;96813.44;108896;1266;22574;-83
2023/09/02 04:29:47;;;;;;;3.90;3.50;;;;;;;16.00;100.00;96818.08;108801;1266;24268;-83
2023/09/02 04:32:19;;;;;;;4.60;3.80;;;;;;;16.04;100.00;96814.38;108829;1269;22519;-83
2023/09/02 04:34:54;;;;;;;3.80;3.40;;;;;;;16.06;100.00;96812.73;108860;1272;22526;-83
2023/09/02 04:37:27;;;;;;;3.60;3.30;;;;;;;16.08;100.00;96817.18;108814;1267;24272;-83
2023/09/02 04:40:05;;;;;;;4.10;3.60;;;;;;;16.10;100.00;96817.79;108860;1272;32501;-83
2023/09/02 04:42:40;;;;;;;5.00;3.80;;;;;;;16.11;100.00;96821.91;108878;1269;22542;-83
2023/09/02 04:45:11;;;;;;;4.60;4.00;;;;;;;16.15;100.00;96826.41;108830;1269;25274;-83
2023/09/02 04:47:43;;;;;;;4.10;3.70;;;;;;;16.18;100.00;96828.35;108774;1265;22522;-82
2023/09/02 04:50:16;;;;;;;5.40;3.60;;;;;;;16.35;100.00;96830.91;108765;1266;25125;-83
2023/09/02 04:52:50;;;;;;;3.70;3.30;;;;;;;16.49;100.00;96832.88;108774;1271;22514;-83
2023/09/02 04:55:24;;;;;;;3.70;3.40;;;;;;;16.49;100.00;96832.29;108831;1266;22533;-83
2023/09/02 04:57:56;;;;;;;6.50;3.60;;;;;;;16.50;100.00;96831.28;108849;1271;22515;-84
2023/09/02 05:00:29;;;;;;;3.70;3.30;;;;;;;16.55;100.00;96834.46;108890;1272;22623;-84
2023/09/02 05:03:01;;;;;;;4.30;3.50;;;;;;;16.60;100.00;96831.31;108844;1251;22510;-84
2023/09/02 05:05:35;;;;;;;3.90;3.20;;;;;;;16.63;100.00;96829.90;108888;1263;22666;-83
2023/09/02 05:08:09;;;;;;;5.70;3.30;;;;;;;16.65;100.00;96833.71;108745;1266;22496;-84
2023/09/02 05:10:40;;;;;;;3.80;3.50;;;;;;;16.65;100.00;96839.82;108721;1271;23807;-83
2023/09/02 05:13:11;;;;;;;3.60;3.30;;;;;;;16.62;100.00;96839.04;108823;1272;25349;-83
2023/09/02 05:15:45;;;;;;;4.60;3.30;;;;;;;16.63;100.00;96837.93;108835;1266;22518;-83
2023/09/02 05:18:18;;;;;;;4.50;3.10;;;;;;;16.90;100.00;96837.05;108811;1267;22726;-83
2023/09/02 05:20:50;;;;;;;4.00;3.30;;;;;;;17.49;100.00;96841.85;108893;1271;22621;-83
2023/09/02 05:23:21;;;;;;;3.10;2.80;;;;;;;18.06;100.00;96844.05;108909;1269;22519;-84
2023/09/02 05:25:58;;;;;;;3.60;3.30;;;;;;;18.06;99.36;96846.73;108929;1268;22519;-83
2023/09/02 05:28:29;;;;;;;3.10;2.80;;;;;;;17.84;99.23;96847.83;108822;1271;22545;-83
2023/09/02 05:31:00;;;;;;;2.80;2.60;;;;;;;17.71;99.33;96844.17;108796;1269;22533;-83
2023/09/02 05:33:31;;;;;;;3.20;3.00;;;;;;;17.66;99.59;96854.74;108744;1266;22660;-83
2023/09/02 05:36:02;;;;;;;3.30;2.90;;;;;;;18.03;100.00;96854.19;108820;1267;26492;-83
2023/09/02 05:38:33;;;;;;;3.40;2.90;;;;;;;18.26;99.43;96858.74;108829;1269;25686;-83
2023/09/02 05:41:04;;;;;;;3.70;3.20;;;;;;;18.12;98.19;96860.09;108755;1272;24259;-82
2023/09/02 05:43:35;;;;;;;3.30;3.00;;;;;;;17.97;98.31;96866.20;108783;1271;22531;-82
2023/09/02 05:46:06;;;;;;;3.60;2.70;;;;;;;17.88;98.65;96861.39;108710;1272;22511;-83
2023/09/02 05:48:38;;;;;;;4.20;3.30;;;;;;;17.93;99.12;96866.17;108736;1271;22580;-84
2023/09/02 05:51:09;;;;;;;3.50;2.90;;;;;;;18.08;99.02;96867.68;108755;1264;26555;-83
2023/09/02 05:53:40;;;;;;;4.40;3.50;;;;;;;18.05;98.93;96870.53;108768;1267;24212;-82
2023/09/02 05:56:13;;;;;;;4.30;3.00;;;;;;;18.33;99.49;96870.98;108788;1269;22521;-83
2023/09/02 05:58:47;;;;;;;3.80;2.80;;;;;;;18.78;98.86;96877.45;108815;1269;22565;-82
2023/09/02 06:01:19;;;;;;;4.30;2.80;;;;;;;18.94;97.53;96872.61;108752;1271;23525;-83
2023/09/02 06:03:50;;;;;;;4.40;3.80;;;;;;;18.80;96.95;96879.93;108792;1271;26545;-84
2023/09/02 06:06:25;;;;;;;3.70;3.20;;;;;;;18.60;96.83;96880.23;108808;1272;22538;-83
2023/09/02 06:08:56;;;;;;;5.30;3.50;;;;;;;18.44;96.88;96885.63;108830;1268;22527;-84
2023/09/02 06:11:32;;;;;;;3.50;3.20;;;;;;;18.28;96.92;96887.83;108893;1266;22511;-84
2023/09/02 06:14:03;;;;;;;4.20;3.30;;;;;;;18.20;97.27;96889.41;108864;1272;22531;-84
2023/09/02 06:16:34;;;;;;;3.30;3.00;;;;;;;18.24;97.91;96890.46;108873;1271;23341;-84
2023/09/02 06:19:05;;;;;;;4.50;3.30;;;;;;;18.33;97.69;96893.41;108843;1271;24648;-84
2023/09/02 06:21:36;;;;;;;4.50;3.20;;;;;;;18.29;97.68;96900.27;108891;1271;22505;-84
2023/09/02 06:24:08;;;;;;;3.40;3.10;;;;;;;18.22;97.60;96903.52;108900;1269;22530;-84
2023/09/02 06:26:39;;;;;;;3.70;3.10;;;;;;;18.16;97.79;96904.80;108947;1271;22558;-84
2023/09/02 06:29:11;;;;;;;3.70;2.90;;;;;;;18.11;97.75;96913.46;108842;1272;22518;-84
2023/09/02 06:31:42;;;;;;;3.80;2.90;;;;;;;18.06;97.80;96918.80;108847;1269;25255;-83
2023/09/02 06:34:22;;;;;;;3.80;3.00;;;;;;;18.01;97.92;96922.80;108832;1269;23007;-83
2023/09/02 06:36:55;;;;;;;2.90;2.70;;;;;;;17.93;97.73;96928.98;108902;1269;22640;-84
2023/09/02 06:39:26;;;;;;;3.40;3.00;;;;;;;17.86;97.85;96927.96;108927;1271;22563;-84
2023/09/02 06:41:58;;;;;;;6.50;3.50;;;;;;;17.81;98.08;96932.41;108857;1272;22509;-84
2023/09/02 06:44:29;;;;;;;4.00;3.10;;;;;;;17.77;98.40;96932.73;108898;1271;22482;-83
2023/09/02 06:47:03;;;;;;;3.80;3.00;;;;;;;17.78;98.76;96935.73;108835;1271;22525;-84
2023/09/02 06:49:35;;;;;;;3.40;3.10;;;;;;;17.79;98.90;96935.70;108846;1263;22622;-84
2023/09/02 06:52:07;;;;;;;4.70;3.40;;;;;;;17.85;99.46;96935.09;108860;1269;22511;-84
2023/09/02 06:54:38;;;;;;;3.80;3.00;;;;;;;17.93;99.75;96936.54;108883;1269;22743;-84
2023/09/02 06:57:11;;;;;;;5.30;3.60;;;;;;;17.99;99.55;96942.30;108983;1271;22559;-84
2023/09/02 06:59:42;;;;;;;4.00;3.00;;;;;;;18.01;99.67;96945.67;108857;1272;23202;-83
2023/09/02 07:02:16;;;;;;;3.20;2.70;;;;;;;18.01;99.56;96947.29;108887;1271;22515;-84
2023/09/02 07:04:50;;;;;;;4.20;3.20;;;;;;;17.98;99.33;96950.48;108841;1267;24274;-83
2023/09/02 07:07:26;;;;;;;3.10;2.80;;;;;;;17.99;99.49;96949.97;108853;1267;25342;-83
2023/09/02 07:09:58;;;;;;;3.40;3.10;;;;;;;17.98;99.41;96955.75;108844;1269;22511;-83
2023/09/02 07:12:30;;;;;;;3.50;3.20;;;;;;;17.97;99.28;96958.00;108856;1269;24848;-83
2023/09/02 07:15:05;;;;;;;3.70;3.40;;;;;;;17.96;99.59;96962.44;108713;1265;22838;-83
2023/09/02 07:17:41;;;;;;;6.10;3.90;;;;;;;17.98;99.60;96964.75;108838;1265;22592;-83
2023/09/02 07:20:14;;;;;;;4.30;3.10;;;;;;;18.01;99.79;96964.23;108776;1269;22511;-83
2023/09/02 07:22:50;;;;;;;4.00;3.20;;;;;;;18.07;99.92;96968.13;108847;1266;22621;-83
2023/09/02 07:25:22;;;;;;;4.70;3.20;;;;;;;18.11;99.66;96974.48;108898;1266;24213;-84
2023/09/02 07:27:55;;;;;;;3.70;3.10;;;;;;;18.17;99.77;96974.21;108774;1266;25443;-84
2023/09/02 07:30:26;;;;;;;3.80;3.20;;;;;;;18.19;99.62;96975.38;108923;1272;23266;-83
2023/09/02 07:33:02;;;;;;;5.40;3.50;;;;;;;18.16;99.16;96972.45;108828;1272;24231;-83
2023/09/02 07:35:36;;;;;;;3.80;2.90;;;;;;;18.13;98.97;96971.89;108751;1269;22646;-84
2023/09/02 07:38:08;;;;;;;4.90;3.30;;;;;;;18.14;99.03;96978.73;108972;1272;22521;-82
2023/09/02 07:40:41;;;;;;;3.80;3.40;;;;;;;18.21;99.48;96983.29;108839;1269;25315;-83
2023/09/02 07:43:13;;;;;;;4.20;3.80;;;;;;;18.37;99.83;96978.70;108841;1271;22576;-84
2023/09/02 07:45:45;;;;;;;6.30;3.80;;;;;;;18.60;100.00;96983.95;108767;1269;22514;-83
2023/09/02 07:48:18;;;;;;;4.40;3.90;;;;;;;18.73;100.00;96984.88;108721;1265;22512;-83
2023/09/02 07:50:49;;;;;;;5.10;3.50;;;;;;;18.82;99.99;96982.02;108771;1272;22502;-83
2023/09/02 07:53:23;;;;;;;4.60;3.30;;;;;;;18.88;99.59;96983.28;108781;1266;22573;-83
2023/09/02 07:55:57;;;;;;;4.20;3.50;;;;;;;18.82;99.21;96984.42;108758;1272;22522;-83
2023/09/02 07:58:31;;;;;;;4.90;3.40;;;;;;;18.70;99.18;96985.87;108816;1272;22524;-83
2023/09/02 08:01:03;;;;;;;3.60;3.30;;;;;;;18.68;99.77;96994.96;108710;1267;25313;-84
2023/09/02 08:03:35;;;;;;;3.60;3.00;;;;;;;18.67;99.54;96995.01;108816;1271;22527;-84
2023/09/02 08:06:10;;;;;;;4.90;3.80;;;;;;;18.60;99.37;96995.77;108429;1266;23409;-84
2023/09/02 08:08:42;;;;;;;4.70;3.60;;;;;;;18.56;99.76;96997.13;108603;1265;22563;-84
2023/09/02 08:11:17;;;;;;;4.20;3.30;;;;;;;18.60;100.00;96995.39;108768;1266;22505;-84
2023/09/02 08:13:49;;;;;;;3.40;3.10;;;;;;;18.61;100.00;96995.12;108800;1271;22517;-84
2023/09/02 08:16:23;;;;;;;4.10;3.70;;;;;;;18.62;100.00;96997.55;108700;1272;22508;-84
2023/09/02 08:18:54;;;;;;;8.20;4.30;;;;;;;18.67;100.00;97002.05;108821;1271;22534;-84
2023/09/02 08:21:26;;;;;;;3.80;3.30;;;;;;;18.69;99.99;97004.75;108795;1272;22521;-85
2023/09/02 08:23:58;;;;;;;6.30;4.80;;;;;;;18.73;100.00;97011.80;108802;1271;22544;-84
2023/09/02 08:26:30;;;;;;;8.50;6.10;;;;;;;18.73;99.98;97015.59;108755;1266;22562;-84
2023/09/02 08:29:01;;;;;;;8.00;6.50;;;;;;;18.71;99.98;97020.17;108763;1251;23225;-84
2023/09/02 08:31:33;;;;;;;7.70;6.30;;;;;;;18.74;99.97;97014.41;108746;1272;22664;-84
2023/09/02 08:34:04;;;;;;;9.10;6.10;;;;;;;18.91;100.00;97018.10;108767;1271;22530;-85
2023/09/02 08:36:37;;;;;;;3.70;3.40;;;;;;;18.97;100.00;97020.59;108812;1266;22530;-84
2023/09/02 08:39:09;;;;;;;6.60;3.30;;;;;;;19.04;99.90;97020.80;108826;1271;22540;-85
2023/09/02 08:41:42;;;;;;;4.30;3.50;;;;;;;19.08;99.36;97018.56;108794;1272;22528;-85
2023/09/02 08:44:20;;;;;;;3.60;3.30;;;;;;;19.04;98.41;97025.92;108801;1271;22527;-85
2023/09/02 08:46:55;;;;;;;4.20;3.80;;;;;;;18.98;98.17;97025.83;108767;1272;22549;-85
2023/09/02 08:49:28;;;;;;;4.80;3.70;;;;;;;19.05;98.57;97029.92;108804;1271;22572;-84
2023/09/02 08:52:00;;;;;;;5.20;4.10;;;;;;;19.16;98.28;97031.41;108787;1272;25347;-84
2023/09/02 08:54:33;;;;;;;4.30;3.90;;;;;;;19.08;97.46;97033.73;108856;1272;22564;-85
2023/09/02 08:57:06;;;;;;;5.20;4.70;;;;;;;18.94;97.26;97031.98;108837;1271;22567;-84
2023/09/02 08:59:37;;;;;;;5.30;4.30;;;;;;;18.90;97.79;97035.96;108836;1272;24442;-85
2023/09/02 09:02:11;;;;;;;6.20;5.60;;;;;;;18.81;97.41;97045.99;108796;1271;22540;-85
2023/09/02 09:04:48;;;;;;;8.20;5.70;;;;;;;18.63;97.04;97052.75;108764;1269;22618;-84
2023/09/02 09:07:22;;;;;;;8.30;7.20;;;;;;;18.48;97.49;97054.85;108821;1269;22516;-84
2023/09/02 09:09:55;;;;;;;8.30;7.40;;;;;;;18.37;97.86;97056.30;108805;1272;23433;-84
2023/09/02 09:12:29;;;;;;;9.00;7.50;;;;;;;18.28;98.09;97059.20;108804;1272;22589;-84
2023/09/02 09:15:04;;;;;;;8.40;7.20;;;;;;;18.06;98.15;97052.84;108747;1272;25437;-83
2023/09/02 09:17:36;;;;;;;8.40;7.60;;;;;;;18.01;99.07;97057.38;108829;1272;22516;-83
2023/09/02 09:20:09;;;;;;;9.70;8.70;;;;;;;18.04;99.56;97058.46;108866;1272;28753;-83
2023/09/02 09:22:42;;;;;;;9.40;8.50;;;;;;;18.29;100.00;97064.00;108923;1272;23177;-84
2023/09/02 09:25:17;;;;;;;9.80;8.50;;;;;;;18.41;100.00;97065.74;108897;1272;27565;-84
2023/09/02 09:27:52;;;;;;;10.20;8.60;;;;;;;18.41;99.92;97073.11;108925;1271;25503;-84
2023/09/02 09:30:33;;;;;;;10.10;8.90;;;;;;;18.44;100.00;97078.13;108916;1271;22518;-84
2023/09/02 09:33:06;;;;;;;10.10;9.10;;;;;;;18.50;100.00;97077.65;108880;1267;22516;-84
2023/09/02 09:35:38;;;;;;;9.50;8.60;;;;;;;18.56;100.00;97077.23;108784;1269;22512;-84
2023/09/02 09:38:10;;;;;;;10.40;9.40;;;;;;;18.57;100.00;97077.27;108771;1271;22596;-83
2023/09/02 09:40:42;;;;;;;11.00;10.00;;;;;;;18.69;100.00;97082.96;108770;1272;23193;-84
2023/09/02 09:43:24;;;;;;;10.00;9.00;;;;;;;18.88;100.00;97084.16;108707;1266;22522;-84
2023/09/02 09:45:56;;;;;;;12.10;9.40;;;;;;;18.95;100.00;97090.90;108582;1267;22522;-83
2023/09/02 09:48:32;;;;;;;9.30;8.00;;;;;;;18.96;100.00;97088.09;108710;1269;24280;-83
2023/09/02 09:51:22;;;;;;;9.20;8.30;;;;;;;19.00;100.00;97087.58;108783;1271;22514;-83
2023/09/02 09:53:56;;;;;;;9.30;8.40;;;;;;;19.10;100.00;97084.67;108829;1269;22594;-84
2023/09/02 09:56:27;;;;;;;8.60;7.70;;;;;;;19.14;100.00;97089.63;108768;1267;22522;-83
2023/09/02 09:59:09;;;;;;;8.90;8.00;;;;;;;19.07;99.95;97091.31;108775;1272;24350;-84
2023/09/02 10:01:47;;;;;;;8.40;7.50;;;;;;;19.15;100.00;97091.39;108805;1267;22524;-83
2023/09/02 10:04:19;;;;;;;8.10;7.30;;;;;;;19.24;100.00;97096.53;108831;1272;22593;-84
2023/09/02 10:06:57;;;;;;;11.40;7.20;;;;;;;19.31;100.00;97094.91;108737;1267;24130;-83
2023/09/02 10:09:46;;;;;;;9.80;7.90;;;;;;;19.36;100.00;97096.55;108801;1272;22542;-84
2023/09/02 10:12:23;;;;;;;8.70;6.60;;;;;;;19.42;100.00;97099.52;108853;1269;21816;-82
2023/09/02 10:14:54;;;;;;;8.20;7.30;;;;;;;19.42;99.70;97100.70;108873;1267;22514;-83
2023/09/02 10:17:27;;;;;;;7.70;7.00;;;;;;;19.36;98.99;97100.48;108933;1272;22527;-85
2023/09/02 10:20:01;;;;;;;6.90;6.20;;;;;;;19.25;98.25;97098.59;108879;1269;26445;-84
2023/09/02 10:22:34;;;;;;;6.80;6.20;;;;;;;19.15;97.47;97100.88;108889;1269;25406;-83
2023/09/02 10:25:18;;;;;;;7.60;6.60;;;;;;;19.09;97.72;97100.91;108845;1269;22540;-83
2023/09/02 10:28:02;;;;;;;7.50;6.80;;;;;;;19.23;99.17;97105.63;108723;1269;25265;-82
2023/09/02 10:30:42;;;;;;;8.30;7.50;;;;;;;19.53;100.00;97110.17;108707;1267;24269;-83
2023/09/02 10:33:26;;;;;;;7.80;7.00;;;;;;;19.80;99.91;97114.10;108801;1272;22621;-82
2023/09/02 10:36:01;;;;;;;7.90;6.70;;;;;;;19.93;99.13;97114.12;108831;1263;22518;-84
2023/09/02 10:38:42;;;;;;;8.20;7.40;;;;;;;19.91;98.16;97118.21;108908;1265;23008;-84
2023/09/02 10:41:18;;;;;;;7.10;6.50;;;;;;;19.83;97.36;97119.73;108774;1269;25051;-84
2023/09/02 10:43:51;;;;;;;7.70;7.00;;;;;;;19.72;96.34;97122.02;108841;1272;22942;-83
2023/09/02 10:46:24;;;;;;;7.90;7.10;;;;;;;19.58;96.28;97115.67;108880;1270;23515;-83
2023/09/02 10:48:56;;;;;;;8.20;7.10;;;;;;;19.64;97.61;97116.39;108877;1269;26484;-84
2023/09/02 10:51:28;;;;;;;8.10;7.40;;;;;;;19.81;98.22;97122.98;108869;1267;22510;-84
2023/09/02 10:54:02;;;;;;;7.70;6.40;;;;;;;19.95;97.56;97122.80;108787;1269;22575;-84
2023/09/02 10:56:34;;;;;;;6.30;5.70;;;;;;;19.98;97.01;97120.86;108787;1266;22510;-84
2023/09/02 10:59:08;;;;;;;7.30;6.60;;;;;;;20.00;96.91;97125.92;108771;1272;22514;-84
2023/09/02 11:01:52;;;;;;;7.10;6.50;;;;;;;19.97;95.91;97124.95;108825;1270;25992;-84
2023/09/02 11:04:57;;;;;;;6.70;6.10;;;;;;;19.92;95.96;97125.62;108889;1269;22548;-84
2023/09/02 11:07:32;;;;;;;7.50;6.50;;;;;;;19.89;95.91;97131.12;108878;1269;22513;-84
2023/09/02 11:10:05;;;;;;;8.40;6.80;;;;;;;19.88;95.71;97138.53;108792;1271;22512;-84
2023/09/02 11:12:57;;;;;;;7.20;6.50;;;;;;;19.82;95.24;97137.69;108786;1267;22596;-85
2023/09/02 11:15:31;;;;;;;7.60;6.60;;;;;;;19.76;94.96;97137.86;108756;1267;22514;-83
2023/09/02 11:18:32;;;;;;;6.60;5.90;;;;;;;19.67;94.35;97142.39;108791;1272;22598;-84
2023/09/02 11:21:04;;;;;;;8.40;6.00;;;;;;;19.66;94.89;97138.44;108760;1270;22525;-84
2023/09/02 11:23:36;;;;;;;7.30;6.30;;;;;;;19.75;95.55;97143.88;108772;1266;22549;-84
2023/09/02 11:26:13;;;;;;;7.70;6.10;;;;;;;19.86;96.06;97144.14;108764;1272;22515;-82
2023/09/02 11:28:48;;;;;;;7.00;6.30;;;;;;;19.99;95.73;97145.11;108717;1269;24378;-82
2023/09/02 11:31:20;;;;;;;6.60;5.90;;;;;;;20.13;95.88;97146.20;108722;1269;22518;-83
2023/09/02 11:33:53;;;;;;;6.20;5.60;;;;;;;20.24;96.01;97144.51;108817;1272;24307;-84
2023/09/02 11:36:30;;;;;;;6.50;5.40;;;;;;;20.29;95.13;97148.73;108861;1272;22639;-84
2023/09/02 11:39:07;;;;;;;8.40;5.70;;;;;;;20.31;94.86;97148.17;108808;1271;22514;-84
2023/09/02 11:41:39;;;;;;;5.50;5.00;;;;;;;20.29;94.51;97144.89;108748;1272;23728;-85
2023/09/02 11:44:13;;;;;;;5.20;4.70;;;;;;;20.22;93.89;97154.81;108789;1267;22514;-82
2023/09/02 11:46:50;;;;;;;6.20;5.60;;;;;;;20.08;93.28;97151.67;108800;1272;22544;-82
2023/09/02 11:49:26;;;;;;;7.40;5.70;;;;;;;19.91;93.12;97154.94;108806;1267;22522;-82
2023/09/02 11:52:00;;;;;;;6.70;5.40;;;;;;;19.85;92.92;97157.29;108724;1270;22540;-84